sensor_id;sensor_type;location;lat;lon;timestamp;P1;durP1;ratioP1;P2;durP2;ratioP2
56581;SDS011;42463;52.214;21.238;2022-09-01T00:01:31;2.30;;;1.30;;
56581;SDS011;42463;52.214;21.238;2022-09-01T00:03:59;2.80;;;2.00;;
56581;SDS011;42463;52.214;21.238;2022-09-01T00:06:28;2.60;;;1.60;;
56581;SDS011;42463;52.214;21.238;2022-09-01T00:08:59;2.20;;;1.50;;
56581;SDS011;42463;52.214;21.238;2022-09-01T00:11:28;3.50;;;1.30;;
56581;SDS011;42463;52.214;21.238;2022-09-01T00:13:56;3.00;;;1.50;;
56581;SDS011;42463;52.214;21.238;2022-09-01T00:16:24;3.30;;;1.40;;
56581;SDS011;42463;52.214;21.238;2022-09-01T00:18:52;5.30;;;1.90;;
56581;SDS011;42463;52.214;21.238;2022-09-01T00:21:20;2.20;;;1.30;;
56581;SDS011;42463;52.214;21.238;2022-09-01T00:23:48;2.00;;;1.60;;
56581;SDS011;42463;52.214;21.238;2022-09-01T00:26:15;1.50;;;1.20;;
56581;SDS011;42463;52.214;21.238;2022-09-01T00:28:41;2.20;;;1.40;;
56581;SDS011;42463;52.214;21.238;2022-09-01T00:31:07;3.20;;;1.40;;
56581;SDS011;42463;52.214;21.238;2022-09-01T00:33:34;4.40;;;1.50;;
56581;SDS011;42463;52.214;21.238;2022-09-01T00:36:02;2.70;;;1.30;;
56581;SDS011;42463;52.214;21.238;2022-09-01T00:38:29;1.70;;;1.20;;
56581;SDS011;42463;52.214;21.238;2022-09-01T00:40:55;3.70;;;1.40;;
56581;SDS011;42463;52.214;21.238;2022-09-01T00:43:35;3.10;;;1.40;;
56581;SDS011;42463;52.214;21.238;2022-09-01T00:46:03;2.20;;;1.50;;
56581;SDS011;42463;52.214;21.238;2022-09-01T00:48:30;3.20;;;1.70;;
56581;SDS011;42463;52.214;21.238;2022-09-01T00:50:56;2.90;;;1.70;;
56581;SDS011;42463;52.214;21.238;2022-09-01T00:53:23;2.80;;;1.80;;
56581;SDS011;42463;52.214;21.238;2022-09-01T00:55:49;3.50;;;2.80;;
56581;SDS011;42463;52.214;21.238;2022-09-01T00:58:16;7.50;;;5.30;;
56581;SDS011;42463;52.214;21.238;2022-09-01T01:04:14;10.40;;;6.80;;
56581;SDS011;42463;52.214;21.238;2022-09-01T01:06:41;8.50;;;5.90;;
56581;SDS011;42463;52.214;21.238;2022-09-01T01:09:11;6.70;;;4.80;;
56581;SDS011;42463;52.214;21.238;2022-09-01T01:11:38;5.70;;;4.00;;
56581;SDS011;42463;52.214;21.238;2022-09-01T01:14:08;4.80;;;3.20;;
56581;SDS011;42463;52.214;21.238;2022-09-01T01:16:34;5.00;;;3.50;;
56581;SDS011;42463;52.214;21.238;2022-09-01T01:19:03;7.60;;;4.00;;
56581;SDS011;42463;52.214;21.238;2022-09-01T01:21:52;6.90;;;4.80;;
56581;SDS011;42463;52.214;21.238;2022-09-01T01:24:37;10.10;;;6.90;;
56581;SDS011;42463;52.214;21.238;2022-09-01T01:27:05;10.20;;;7.70;;
56581;SDS011;42463;52.214;21.238;2022-09-01T01:29:33;10.70;;;8.00;;
56581;SDS011;42463;52.214;21.238;2022-09-01T01:32:02;8.90;;;7.20;;
56581;SDS011;42463;52.214;21.238;2022-09-01T01:34:36;7.70;;;6.00;;
56581;SDS011;42463;52.214;21.238;2022-09-01T01:37:05;6.50;;;5.10;;
56581;SDS011;42463;52.214;21.238;2022-09-01T01:39:33;9.00;;;4.70;;
56581;SDS011;42463;52.214;21.238;2022-09-01T01:42:03;4.30;;;2.90;;
56581;SDS011;42463;52.214;21.238;2022-09-01T01:44:31;3.20;;;2.20;;
56581;SDS011;42463;52.214;21.238;2022-09-01T01:47:00;1.90;;;1.70;;
56581;SDS011;42463;52.214;21.238;2022-09-01T01:49:30;2.10;;;1.30;;
56581;SDS011;42463;52.214;21.238;2022-09-01T01:51:56;2.80;;;1.70;;
56581;SDS011;42463;52.214;21.238;2022-09-01T01:54:27;2.30;;;1.70;;
56581;SDS011;42463;52.214;21.238;2022-09-01T01:56:55;4.00;;;1.70;;
56581;SDS011;42463;52.214;21.238;2022-09-01T01:59:21;2.10;;;1.60;;
56581;SDS011;42463;52.214;21.238;2022-09-01T02:01:49;3.30;;;2.10;;
56581;SDS011;42463;52.214;21.238;2022-09-01T02:04:17;2.10;;;1.40;;
56581;SDS011;42463;52.214;21.238;2022-09-01T02:06:44;2.00;;;1.30;;
56581;SDS011;42463;52.214;21.238;2022-09-01T02:09:13;2.50;;;1.30;;
56581;SDS011;42463;52.214;21.238;2022-09-01T02:11:41;4.30;;;1.50;;
56581;SDS011;42463;52.214;21.238;2022-09-01T02:14:09;1.50;;;1.40;;
56581;SDS011;42463;52.214;21.238;2022-09-01T02:16:39;2.30;;;1.40;;
56581;SDS011;42463;52.214;21.238;2022-09-01T02:19:07;2.80;;;1.40;;
56581;SDS011;42463;52.214;21.238;2022-09-01T02:21:35;2.10;;;1.60;;
56581;SDS011;42463;52.214;21.238;2022-09-01T02:24:12;2.50;;;1.50;;
56581;SDS011;42463;52.214;21.238;2022-09-01T02:26:40;2.40;;;1.40;;
56581;SDS011;42463;52.214;21.238;2022-09-01T02:29:11;2.50;;;1.50;;
56581;SDS011;42463;52.214;21.238;2022-09-01T02:31:43;3.50;;;1.50;;
56581;SDS011;42463;52.214;21.238;2022-09-01T02:34:10;3.50;;;1.50;;
56581;SDS011;42463;52.214;21.238;2022-09-01T02:36:38;4.00;;;1.40;;
56581;SDS011;42463;52.214;21.238;2022-09-01T02:39:07;4.50;;;1.60;;
56581;SDS011;42463;52.214;21.238;2022-09-01T02:41:33;2.80;;;1.60;;
56581;SDS011;42463;52.214;21.238;2022-09-01T02:44:00;2.90;;;1.40;;
56581;SDS011;42463;52.214;21.238;2022-09-01T02:46:34;2.20;;;1.60;;
56581;SDS011;42463;52.214;21.238;2022-09-01T02:49:04;1.60;;;1.40;;
56581;SDS011;42463;52.214;21.238;2022-09-01T02:51:37;1.60;;;1.50;;
56581;SDS011;42463;52.214;21.238;2022-09-01T02:54:03;2.40;;;1.40;;
56581;SDS011;42463;52.214;21.238;2022-09-01T02:56:30;2.60;;;1.60;;
56581;SDS011;42463;52.214;21.238;2022-09-01T02:58:56;3.10;;;1.70;;
56581;SDS011;42463;52.214;21.238;2022-09-01T03:01:26;1.80;;;1.30;;
56581;SDS011;42463;52.214;21.238;2022-09-01T03:03:55;2.20;;;1.40;;
56581;SDS011;42463;52.214;21.238;2022-09-01T03:06:24;1.90;;;1.20;;
56581;SDS011;42463;52.214;21.238;2022-09-01T03:08:52;2.90;;;1.40;;
56581;SDS011;42463;52.214;21.238;2022-09-01T03:11:22;5.50;;;1.40;;
56581;SDS011;42463;52.214;21.238;2022-09-01T03:13:50;1.50;;;1.20;;
56581;SDS011;42463;52.214;21.238;2022-09-01T03:16:16;3.10;;;1.50;;
56581;SDS011;42463;52.214;21.238;2022-09-01T03:18:45;2.70;;;1.30;;
56581;SDS011;42463;52.214;21.238;2022-09-01T03:21:12;4.10;;;1.30;;
56581;SDS011;42463;52.214;21.238;2022-09-01T03:23:40;2.80;;;1.40;;
56581;SDS011;42463;52.214;21.238;2022-09-01T03:26:06;2.10;;;1.30;;
56581;SDS011;42463;52.214;21.238;2022-09-01T03:28:33;1.70;;;1.40;;
56581;SDS011;42463;52.214;21.238;2022-09-01T03:30:59;2.40;;;1.40;;
56581;SDS011;42463;52.214;21.238;2022-09-01T03:33:27;3.30;;;1.60;;
56581;SDS011;42463;52.214;21.238;2022-09-01T03:35:55;1.90;;;1.40;;
56581;SDS011;42463;52.214;21.238;2022-09-01T03:38:22;2.40;;;1.30;;
56581;SDS011;42463;52.214;21.238;2022-09-01T03:40:50;1.80;;;1.10;;
56581;SDS011;42463;52.214;21.238;2022-09-01T03:43:21;2.10;;;1.50;;
56581;SDS011;42463;52.214;21.238;2022-09-01T03:45:50;1.60;;;1.20;;
56581;SDS011;42463;52.214;21.238;2022-09-01T03:48:17;3.70;;;1.70;;
56581;SDS011;42463;52.214;21.238;2022-09-01T03:50:45;3.20;;;1.40;;
56581;SDS011;42463;52.214;21.238;2022-09-01T03:53:13;3.60;;;1.50;;
56581;SDS011;42463;52.214;21.238;2022-09-01T03:55:42;3.50;;;1.80;;
56581;SDS011;42463;52.214;21.238;2022-09-01T03:58:10;2.40;;;1.50;;
56581;SDS011;42463;52.214;21.238;2022-09-01T04:00:42;4.20;;;1.70;;
56581;SDS011;42463;52.214;21.238;2022-09-01T04:03:12;3.50;;;1.40;;
56581;SDS011;42463;52.214;21.238;2022-09-01T04:05:44;1.50;;;1.30;;
56581;SDS011;42463;52.214;21.238;2022-09-01T04:08:13;2.10;;;1.50;;
56581;SDS011;42463;52.214;21.238;2022-09-01T04:10:44;2.30;;;1.30;;
56581;SDS011;42463;52.214;21.238;2022-09-01T04:13:13;2.70;;;1.60;;
56581;SDS011;42463;52.214;21.238;2022-09-01T04:15:40;3.30;;;1.40;;
56581;SDS011;42463;52.214;21.238;2022-09-01T04:18:06;2.60;;;1.70;;
56581;SDS011;42463;52.214;21.238;2022-09-01T04:20:43;2.30;;;1.60;;
56581;SDS011;42463;52.214;21.238;2022-09-01T04:23:13;2.50;;;1.50;;
56581;SDS011;42463;52.214;21.238;2022-09-01T04:25:44;4.10;;;1.50;;
56581;SDS011;42463;52.214;21.238;2022-09-01T04:28:11;2.30;;;1.50;;
56581;SDS011;42463;52.214;21.238;2022-09-01T04:30:45;3.40;;;1.60;;
56581;SDS011;42463;52.214;21.238;2022-09-01T04:33:12;1.60;;;1.50;;
56581;SDS011;42463;52.214;21.238;2022-09-01T04:35:40;3.40;;;1.50;;
56581;SDS011;42463;52.214;21.238;2022-09-01T04:38:08;5.00;;;1.60;;
56581;SDS011;42463;52.214;21.238;2022-09-01T04:40:38;1.60;;;1.40;;
56581;SDS011;42463;52.214;21.238;2022-09-01T04:43:04;1.90;;;1.60;;
56581;SDS011;42463;52.214;21.238;2022-09-01T04:45:33;1.90;;;1.50;;
56581;SDS011;42463;52.214;21.238;2022-09-01T04:47:59;2.70;;;1.70;;
56581;SDS011;42463;52.214;21.238;2022-09-01T04:50:25;2.80;;;1.50;;
56581;SDS011;42463;52.214;21.238;2022-09-01T04:53:09;2.20;;;1.60;;
56581;SDS011;42463;52.214;21.238;2022-09-01T04:55:42;4.80;;;1.60;;
56581;SDS011;42463;52.214;21.238;2022-09-01T04:58:10;1.70;;;1.60;;
56581;SDS011;42463;52.214;21.238;2022-09-01T05:00:40;3.00;;;1.80;;
56581;SDS011;42463;52.214;21.238;2022-09-01T05:03:07;5.80;;;2.10;;
56581;SDS011;42463;52.214;21.238;2022-09-01T05:05:48;3.40;;;1.60;;
56581;SDS011;42463;52.214;21.238;2022-09-01T05:08:17;3.10;;;1.50;;
56581;SDS011;42463;52.214;21.238;2022-09-01T05:10:47;3.40;;;1.60;;
56581;SDS011;42463;52.214;21.238;2022-09-01T05:13:26;2.00;;;1.50;;
56581;SDS011;42463;52.214;21.238;2022-09-01T05:16:02;4.00;;;1.70;;
56581;SDS011;42463;52.214;21.238;2022-09-01T05:18:34;4.60;;;1.90;;
56581;SDS011;42463;52.214;21.238;2022-09-01T05:21:05;5.80;;;1.70;;
56581;SDS011;42463;52.214;21.238;2022-09-01T05:23:32;3.30;;;1.50;;
56581;SDS011;42463;52.214;21.238;2022-09-01T05:25:59;4.30;;;1.60;;
56581;SDS011;42463;52.214;21.238;2022-09-01T05:28:27;2.70;;;1.50;;
56581;SDS011;42463;52.214;21.238;2022-09-01T05:30:54;4.20;;;1.70;;
56581;SDS011;42463;52.214;21.238;2022-09-01T05:33:24;4.80;;;1.30;;
56581;SDS011;42463;52.214;21.238;2022-09-01T05:35:55;3.20;;;1.50;;
56581;SDS011;42463;52.214;21.238;2022-09-01T05:38:24;4.50;;;1.70;;
56581;SDS011;42463;52.214;21.238;2022-09-01T05:40:58;4.00;;;1.70;;
56581;SDS011;42463;52.214;21.238;2022-09-01T05:43:27;2.90;;;1.40;;
56581;SDS011;42463;52.214;21.238;2022-09-01T05:45:54;4.00;;;1.80;;
56581;SDS011;42463;52.214;21.238;2022-09-01T05:48:22;4.00;;;1.40;;
56581;SDS011;42463;52.214;21.238;2022-09-01T05:50:49;2.80;;;1.70;;
56581;SDS011;42463;52.214;21.238;2022-09-01T05:53:20;3.70;;;1.40;;
56581;SDS011;42463;52.214;21.238;2022-09-01T05:55:47;4.10;;;1.70;;
56581;SDS011;42463;52.214;21.238;2022-09-01T05:58:17;4.40;;;1.10;;
56581;SDS011;42463;52.214;21.238;2022-09-01T06:00:43;2.90;;;1.20;;
56581;SDS011;42463;52.214;21.238;2022-09-01T06:03:11;5.80;;;1.40;;
56581;SDS011;42463;52.214;21.238;2022-09-01T06:05:40;3.00;;;1.20;;
56581;SDS011;42463;52.214;21.238;2022-09-01T06:08:10;4.10;;;1.30;;
56581;SDS011;42463;52.214;21.238;2022-09-01T06:10:37;6.80;;;1.40;;
56581;SDS011;42463;52.214;21.238;2022-09-01T06:13:04;6.50;;;1.20;;
56581;SDS011;42463;52.214;21.238;2022-09-01T06:15:31;3.70;;;1.30;;
56581;SDS011;42463;52.214;21.238;2022-09-01T06:17:59;4.20;;;1.10;;
56581;SDS011;42463;52.214;21.238;2022-09-01T06:20:26;1.70;;;1.20;;
56581;SDS011;42463;52.214;21.238;2022-09-01T06:22:53;5.60;;;1.30;;
56581;SDS011;42463;52.214;21.238;2022-09-01T06:25:19;3.90;;;1.20;;
56581;SDS011;42463;52.214;21.238;2022-09-01T06:27:48;3.20;;;1.20;;
56581;SDS011;42463;52.214;21.238;2022-09-01T06:30:17;4.00;;;1.10;;
56581;SDS011;42463;52.214;21.238;2022-09-01T06:33:01;4.20;;;1.10;;
56581;SDS011;42463;52.214;21.238;2022-09-01T06:35:32;2.30;;;0.90;;
56581;SDS011;42463;52.214;21.238;2022-09-01T06:37:59;4.80;;;1.20;;
56581;SDS011;42463;52.214;21.238;2022-09-01T06:40:40;4.60;;;1.00;;
56581;SDS011;42463;52.214;21.238;2022-09-01T06:43:08;6.10;;;1.10;;
56581;SDS011;42463;52.214;21.238;2022-09-01T06:45:42;3.50;;;1.10;;
56581;SDS011;42463;52.214;21.238;2022-09-01T06:48:12;5.40;;;1.10;;
56581;SDS011;42463;52.214;21.238;2022-09-01T06:50:40;6.40;;;0.90;;
56581;SDS011;42463;52.214;21.238;2022-09-01T06:53:08;3.30;;;1.10;;
56581;SDS011;42463;52.214;21.238;2022-09-01T06:55:37;2.40;;;0.90;;
56581;SDS011;42463;52.214;21.238;2022-09-01T06:58:06;5.00;;;1.00;;
56581;SDS011;42463;52.214;21.238;2022-09-01T07:00:38;2.30;;;0.80;;
56581;SDS011;42463;52.214;21.238;2022-09-01T07:03:06;1.60;;;0.70;;
56581;SDS011;42463;52.214;21.238;2022-09-01T07:05:59;2.40;;;0.50;;
56581;SDS011;42463;52.214;21.238;2022-09-01T07:08:47;3.50;;;0.70;;
56581;SDS011;42463;52.214;21.238;2022-09-01T07:11:25;0.90;;;0.60;;
56581;SDS011;42463;52.214;21.238;2022-09-01T07:13:59;1.70;;;0.60;;
56581;SDS011;42463;52.214;21.238;2022-09-01T07:16:32;2.00;;;0.80;;
56581;SDS011;42463;52.214;21.238;2022-09-01T07:19:03;2.80;;;1.10;;
56581;SDS011;42463;52.214;21.238;2022-09-01T07:21:59;1.90;;;0.50;;
56581;SDS011;42463;52.214;21.238;2022-09-01T07:24:27;0.80;;;0.50;;
56581;SDS011;42463;52.214;21.238;2022-09-01T07:27:15;2.70;;;0.60;;
56581;SDS011;42463;52.214;21.238;2022-09-01T07:29:44;2.20;;;0.60;;
56581;SDS011;42463;52.214;21.238;2022-09-01T07:32:36;2.10;;;0.80;;
56581;SDS011;42463;52.214;21.238;2022-09-01T07:35:11;3.90;;;0.60;;
56581;SDS011;42463;52.214;21.238;2022-09-01T07:37:41;2.30;;;0.70;;
56581;SDS011;42463;52.214;21.238;2022-09-01T07:40:13;1.60;;;0.70;;
56581;SDS011;42463;52.214;21.238;2022-09-01T07:43:03;2.50;;;0.60;;
56581;SDS011;42463;52.214;21.238;2022-09-01T07:45:53;2.30;;;0.50;;
56581;SDS011;42463;52.214;21.238;2022-09-01T07:48:22;1.70;;;0.50;;
56581;SDS011;42463;52.214;21.238;2022-09-01T07:50:53;2.10;;;0.50;;
56581;SDS011;42463;52.214;21.238;2022-09-01T07:53:42;1.40;;;0.60;;
56581;SDS011;42463;52.214;21.238;2022-09-01T07:56:13;2.50;;;0.80;;
56581;SDS011;42463;52.214;21.238;2022-09-01T07:58:43;0.40;;;0.40;;
56581;SDS011;42463;52.214;21.238;2022-09-01T08:01:14;0.70;;;0.40;;
56581;SDS011;42463;52.214;21.238;2022-09-01T08:03:46;1.80;;;0.50;;
56581;SDS011;42463;52.214;21.238;2022-09-01T08:06:17;1.90;;;0.60;;
56581;SDS011;42463;52.214;21.238;2022-09-01T08:08:47;3.00;;;0.60;;
56581;SDS011;42463;52.214;21.238;2022-09-01T08:11:19;0.60;;;0.50;;
56581;SDS011;42463;52.214;21.238;2022-09-01T08:13:49;2.30;;;0.60;;
56581;SDS011;42463;52.214;21.238;2022-09-01T08:16:19;3.00;;;0.60;;
56581;SDS011;42463;52.214;21.238;2022-09-01T08:18:48;1.30;;;0.60;;
56581;SDS011;42463;52.214;21.238;2022-09-01T08:21:24;2.20;;;0.50;;
56581;SDS011;42463;52.214;21.238;2022-09-01T08:24:14;0.90;;;0.60;;
56581;SDS011;42463;52.214;21.238;2022-09-01T08:26:41;1.70;;;0.70;;
56581;SDS011;42463;52.214;21.238;2022-09-01T08:29:07;0.70;;;0.50;;
56581;SDS011;42463;52.214;21.238;2022-09-01T08:31:38;0.50;;;0.50;;
56581;SDS011;42463;52.214;21.238;2022-09-01T08:34:04;0.90;;;0.40;;
56581;SDS011;42463;52.214;21.238;2022-09-01T08:36:31;0.70;;;0.50;;
56581;SDS011;42463;52.214;21.238;2022-09-01T08:38:58;1.30;;;0.60;;
56581;SDS011;42463;52.214;21.238;2022-09-01T08:41:31;2.00;;;0.70;;
56581;SDS011;42463;52.214;21.238;2022-09-01T08:44:12;2.00;;;1.10;;
56581;SDS011;42463;52.214;21.238;2022-09-01T08:46:46;1.80;;;0.60;;
56581;SDS011;42463;52.214;21.238;2022-09-01T08:49:20;2.80;;;0.40;;
56581;SDS011;42463;52.214;21.238;2022-09-01T08:52:07;2.40;;;0.60;;
56581;SDS011;42463;52.214;21.238;2022-09-01T08:54:43;2.20;;;0.80;;
56581;SDS011;42463;52.214;21.238;2022-09-01T08:57:15;2.60;;;0.70;;
56581;SDS011;42463;52.214;21.238;2022-09-01T09:00:14;2.00;;;0.50;;
56581;SDS011;42463;52.214;21.238;2022-09-01T09:02:52;1.70;;;0.40;;
56581;SDS011;42463;52.214;21.238;2022-09-01T09:05:40;1.60;;;0.50;;
56581;SDS011;42463;52.214;21.238;2022-09-01T09:11:21;0.90;;;0.60;;
56581;SDS011;42463;52.214;21.238;2022-09-01T09:14:08;1.80;;;0.50;;
56581;SDS011;42463;52.214;21.238;2022-09-01T09:16:40;0.80;;;0.40;;
56581;SDS011;42463;52.214;21.238;2022-09-01T09:19:13;0.80;;;0.40;;
56581;SDS011;42463;52.214;21.238;2022-09-01T09:21:47;1.40;;;0.40;;
56581;SDS011;42463;52.214;21.238;2022-09-01T09:24:18;0.70;;;0.30;;
56581;SDS011;42463;52.214;21.238;2022-09-01T09:26:51;0.60;;;0.40;;
56581;SDS011;42463;52.214;21.238;2022-09-01T09:29:17;1.80;;;0.50;;
56581;SDS011;42463;52.214;21.238;2022-09-01T09:31:44;2.10;;;0.60;;
56581;SDS011;42463;52.214;21.238;2022-09-01T09:34:29;0.70;;;0.40;;
56581;SDS011;42463;52.214;21.238;2022-09-01T09:37:01;1.70;;;0.50;;
56581;SDS011;42463;52.214;21.238;2022-09-01T09:40:10;0.90;;;0.50;;
56581;SDS011;42463;52.214;21.238;2022-09-01T09:42:38;1.20;;;0.40;;
56581;SDS011;42463;52.214;21.238;2022-09-01T09:45:08;0.50;;;0.30;;
56581;SDS011;42463;52.214;21.238;2022-09-01T09:47:45;1.70;;;0.60;;
56581;SDS011;42463;52.214;21.238;2022-09-01T09:50:21;1.10;;;0.50;;
56581;SDS011;42463;52.214;21.238;2022-09-01T09:52:50;0.80;;;0.40;;
56581;SDS011;42463;52.214;21.238;2022-09-01T09:55:33;0.60;;;0.40;;
56581;SDS011;42463;52.214;21.238;2022-09-01T09:58:00;1.80;;;0.50;;
56581;SDS011;42463;52.214;21.238;2022-09-01T10:00:36;0.60;;;0.30;;
56581;SDS011;42463;52.214;21.238;2022-09-01T10:03:04;0.40;;;0.30;;
56581;SDS011;42463;52.214;21.238;2022-09-01T10:05:38;1.00;;;0.50;;
56581;SDS011;42463;52.214;21.238;2022-09-01T10:08:11;3.20;;;0.60;;
56581;SDS011;42463;52.214;21.238;2022-09-01T10:10:59;0.60;;;0.50;;
56581;SDS011;42463;52.214;21.238;2022-09-01T10:13:26;1.20;;;0.50;;
56581;SDS011;42463;52.214;21.238;2022-09-01T10:15:56;1.80;;;0.40;;
56581;SDS011;42463;52.214;21.238;2022-09-01T10:18:24;1.20;;;0.50;;
56581;SDS011;42463;52.214;21.238;2022-09-01T10:20:57;0.50;;;0.40;;
56581;SDS011;42463;52.214;21.238;2022-09-01T10:23:26;0.60;;;0.40;;
56581;SDS011;42463;52.214;21.238;2022-09-01T10:25:55;0.70;;;0.40;;
56581;SDS011;42463;52.214;21.238;2022-09-01T10:28:25;0.50;;;0.30;;
56581;SDS011;42463;52.214;21.238;2022-09-01T10:30:55;0.40;;;0.30;;
56581;SDS011;42463;52.214;21.238;2022-09-01T10:33:22;0.30;;;0.30;;
56581;SDS011;42463;52.214;21.238;2022-09-01T10:35:51;0.40;;;0.40;;
56581;SDS011;42463;52.214;21.238;2022-09-01T10:38:20;1.80;;;0.50;;
56581;SDS011;42463;52.214;21.238;2022-09-01T10:40:48;0.40;;;0.30;;
56581;SDS011;42463;52.214;21.238;2022-09-01T10:43:43;3.00;;;0.60;;
56581;SDS011;42463;52.214;21.238;2022-09-01T10:52:57;1.40;;;0.50;;
56581;SDS011;42463;52.214;21.238;2022-09-01T10:55:28;0.70;;;0.50;;
56581;SDS011;42463;52.214;21.238;2022-09-01T10:58:41;1.90;;;0.40;;
56581;SDS011;42463;52.214;21.238;2022-09-01T11:03:47;0.90;;;0.30;;
56581;SDS011;42463;52.214;21.238;2022-09-01T11:09:27;0.40;;;0.40;;
56581;SDS011;42463;52.214;21.238;2022-09-01T11:12:09;0.70;;;0.50;;
56581;SDS011;42463;52.214;21.238;2022-09-01T11:14:54;0.90;;;0.50;;
56581;SDS011;42463;52.214;21.238;2022-09-01T11:17:25;0.60;;;0.30;;
56581;SDS011;42463;52.214;21.238;2022-09-01T11:19:58;1.00;;;0.40;;
56581;SDS011;42463;52.214;21.238;2022-09-01T11:22:35;0.80;;;0.40;;
56581;SDS011;42463;52.214;21.238;2022-09-01T11:25:12;0.50;;;0.50;;
56581;SDS011;42463;52.214;21.238;2022-09-01T11:28:05;0.80;;;0.50;;
56581;SDS011;42463;52.214;21.238;2022-09-01T11:30:42;0.40;;;0.40;;
56581;SDS011;42463;52.214;21.238;2022-09-01T11:36:17;0.70;;;0.40;;
56581;SDS011;42463;52.214;21.238;2022-09-01T11:38:53;0.70;;;0.50;;
56581;SDS011;42463;52.214;21.238;2022-09-01T11:41:27;1.00;;;0.40;;
56581;SDS011;42463;52.214;21.238;2022-09-01T11:43:57;1.40;;;0.30;;
56581;SDS011;42463;52.214;21.238;2022-09-01T11:46:34;0.50;;;0.40;;
56581;SDS011;42463;52.214;21.238;2022-09-01T11:49:22;1.50;;;0.60;;
56581;SDS011;42463;52.214;21.238;2022-09-01T11:51:52;1.00;;;0.50;;
56581;SDS011;42463;52.214;21.238;2022-09-01T11:54:19;3.20;;;0.40;;
56581;SDS011;42463;52.214;21.238;2022-09-01T11:56:46;1.00;;;0.50;;
56581;SDS011;42463;52.214;21.238;2022-09-01T11:59:12;1.40;;;0.40;;
56581;SDS011;42463;52.214;21.238;2022-09-01T12:01:38;1.80;;;0.40;;
56581;SDS011;42463;52.214;21.238;2022-09-01T12:04:31;0.60;;;0.40;;
56581;SDS011;42463;52.214;21.238;2022-09-01T12:07:00;1.70;;;0.40;;
56581;SDS011;42463;52.214;21.238;2022-09-01T12:09:36;0.70;;;0.20;;
56581;SDS011;42463;52.214;21.238;2022-09-01T12:12:07;1.20;;;0.50;;
56581;SDS011;42463;52.214;21.238;2022-09-01T12:15:00;0.40;;;0.30;;
56581;SDS011;42463;52.214;21.238;2022-09-01T12:17:28;0.40;;;0.30;;
56581;SDS011;42463;52.214;21.238;2022-09-01T12:19:54;0.80;;;0.40;;
56581;SDS011;42463;52.214;21.238;2022-09-01T12:22:42;0.90;;;0.30;;
56581;SDS011;42463;52.214;21.238;2022-09-01T12:25:18;1.60;;;0.50;;
56581;SDS011;42463;52.214;21.238;2022-09-01T12:27:46;1.30;;;0.40;;
56581;SDS011;42463;52.214;21.238;2022-09-01T12:30:13;0.70;;;0.40;;
56581;SDS011;42463;52.214;21.238;2022-09-01T12:32:40;1.10;;;0.40;;
56581;SDS011;42463;52.214;21.238;2022-09-01T12:35:16;1.90;;;0.40;;
56581;SDS011;42463;52.214;21.238;2022-09-01T12:37:44;1.00;;;0.40;;
56581;SDS011;42463;52.214;21.238;2022-09-01T12:40:25;0.50;;;0.40;;
56581;SDS011;42463;52.214;21.238;2022-09-01T12:42:57;0.90;;;0.40;;
56581;SDS011;42463;52.214;21.238;2022-09-01T12:45:43;1.40;;;0.50;;
56581;SDS011;42463;52.214;21.238;2022-09-01T12:48:25;1.00;;;0.50;;
56581;SDS011;42463;52.214;21.238;2022-09-01T12:50:53;1.00;;;0.40;;
56581;SDS011;42463;52.214;21.238;2022-09-01T12:53:23;0.80;;;0.40;;
56581;SDS011;42463;52.214;21.238;2022-09-01T12:56:00;1.70;;;0.40;;
56581;SDS011;42463;52.214;21.238;2022-09-01T12:58:30;0.40;;;0.40;;
56581;SDS011;42463;52.214;21.238;2022-09-01T13:00:58;1.60;;;0.50;;
56581;SDS011;42463;52.214;21.238;2022-09-01T13:03:27;0.40;;;0.30;;
56581;SDS011;42463;52.214;21.238;2022-09-01T13:05:55;1.90;;;0.50;;
56581;SDS011;42463;52.214;21.238;2022-09-01T13:08:24;1.20;;;0.50;;
56581;SDS011;42463;52.214;21.238;2022-09-01T13:10:52;2.30;;;0.40;;
56581;SDS011;42463;52.214;21.238;2022-09-01T13:13:21;3.90;;;0.50;;
56581;SDS011;42463;52.214;21.238;2022-09-01T13:15:49;2.80;;;0.50;;
56581;SDS011;42463;52.214;21.238;2022-09-01T13:18:17;1.50;;;0.40;;
56581;SDS011;42463;52.214;21.238;2022-09-01T13:20:43;1.40;;;0.50;;
56581;SDS011;42463;52.214;21.238;2022-09-01T13:23:09;1.30;;;0.50;;
56581;SDS011;42463;52.214;21.238;2022-09-01T13:25:36;1.60;;;0.60;;
56581;SDS011;42463;52.214;21.238;2022-09-01T13:28:03;1.00;;;0.40;;
56581;SDS011;42463;52.214;21.238;2022-09-01T13:30:29;2.10;;;0.50;;
56581;SDS011;42463;52.214;21.238;2022-09-01T13:32:55;1.10;;;0.40;;
56581;SDS011;42463;52.214;21.238;2022-09-01T13:35:22;1.50;;;0.60;;
56581;SDS011;42463;52.214;21.238;2022-09-01T13:37:48;2.00;;;0.50;;
56581;SDS011;42463;52.214;21.238;2022-09-01T13:40:15;0.90;;;0.40;;
56581;SDS011;42463;52.214;21.238;2022-09-01T13:42:42;3.20;;;0.50;;
56581;SDS011;42463;52.214;21.238;2022-09-01T13:45:10;0.70;;;0.50;;
56581;SDS011;42463;52.214;21.238;2022-09-01T13:47:40;2.60;;;0.60;;
56581;SDS011;42463;52.214;21.238;2022-09-01T13:50:09;1.20;;;0.70;;
56581;SDS011;42463;52.214;21.238;2022-09-01T13:52:36;2.70;;;0.60;;
56581;SDS011;42463;52.214;21.238;2022-09-01T13:55:04;1.70;;;0.50;;
56581;SDS011;42463;52.214;21.238;2022-09-01T13:57:32;0.70;;;0.50;;
56581;SDS011;42463;52.214;21.238;2022-09-01T13:59:58;2.60;;;0.50;;
56581;SDS011;42463;52.214;21.238;2022-09-01T14:02:25;0.90;;;0.50;;
56581;SDS011;42463;52.214;21.238;2022-09-01T14:04:51;1.00;;;0.60;;
56581;SDS011;42463;52.214;21.238;2022-09-01T14:07:17;2.70;;;0.60;;
56581;SDS011;42463;52.214;21.238;2022-09-01T14:09:44;0.70;;;0.40;;
56581;SDS011;42463;52.214;21.238;2022-09-01T14:12:10;1.10;;;0.60;;
56581;SDS011;42463;52.214;21.238;2022-09-01T14:14:36;1.10;;;0.40;;
56581;SDS011;42463;52.214;21.238;2022-09-01T14:17:02;1.20;;;0.40;;
56581;SDS011;42463;52.214;21.238;2022-09-01T14:19:29;0.90;;;0.50;;
56581;SDS011;42463;52.214;21.238;2022-09-01T14:21:55;1.30;;;0.50;;
56581;SDS011;42463;52.214;21.238;2022-09-01T14:24:21;1.80;;;0.60;;
56581;SDS011;42463;52.214;21.238;2022-09-01T14:26:49;2.70;;;0.60;;
56581;SDS011;42463;52.214;21.238;2022-09-01T14:29:15;1.70;;;0.50;;
56581;SDS011;42463;52.214;21.238;2022-09-01T14:31:41;0.60;;;0.50;;
56581;SDS011;42463;52.214;21.238;2022-09-01T14:34:08;1.20;;;0.40;;
56581;SDS011;42463;52.214;21.238;2022-09-01T14:36:34;1.00;;;0.40;;
56581;SDS011;42463;52.214;21.238;2022-09-01T14:39:01;2.20;;;0.50;;
56581;SDS011;42463;52.214;21.238;2022-09-01T14:41:28;2.70;;;0.40;;
56581;SDS011;42463;52.214;21.238;2022-09-01T14:43:54;1.40;;;0.40;;
56581;SDS011;42463;52.214;21.238;2022-09-01T14:46:24;0.70;;;0.40;;
56581;SDS011;42463;52.214;21.238;2022-09-01T14:48:52;0.90;;;0.60;;
56581;SDS011;42463;52.214;21.238;2022-09-01T14:51:30;2.10;;;0.40;;
56581;SDS011;42463;52.214;21.238;2022-09-01T14:53:58;0.80;;;0.40;;
56581;SDS011;42463;52.214;21.238;2022-09-01T14:56:24;2.00;;;0.70;;
56581;SDS011;42463;52.214;21.238;2022-09-01T14:58:52;2.10;;;0.40;;
56581;SDS011;42463;52.214;21.238;2022-09-01T15:01:22;1.50;;;0.40;;
56581;SDS011;42463;52.214;21.238;2022-09-01T15:03:59;1.60;;;0.50;;
56581;SDS011;42463;52.214;21.238;2022-09-01T15:06:26;1.30;;;0.50;;
56581;SDS011;42463;52.214;21.238;2022-09-01T15:08:52;1.60;;;0.50;;
56581;SDS011;42463;52.214;21.238;2022-09-01T15:11:20;1.70;;;0.60;;
56581;SDS011;42463;52.214;21.238;2022-09-01T15:13:47;1.40;;;0.80;;
56581;SDS011;42463;52.214;21.238;2022-09-01T15:16:16;1.50;;;0.40;;
56581;SDS011;42463;52.214;21.238;2022-09-01T15:18:45;1.20;;;0.50;;